sensor_id;sensor_type;location;lat;lon;timestamp;temperature;humidity
40368;DHT22;26075;43.320;21.920;2023-09-19T00:02:04;24.70;62.50
40368;DHT22;26075;43.320;21.920;2023-09-19T00:17:09;24.30;62.20
40368;DHT22;26075;43.320;21.920;2023-09-19T00:27:11;24.70;62.60
40368;DHT22;26075;43.320;21.920;2023-09-19T00:37:14;24.70;62.20
40368;DHT22;26075;43.320;21.920;2023-09-19T00:42:19;24.50;62.00
40368;DHT22;26075;43.320;21.920;2023-09-19T00:52:23;24.40;61.50
40368;DHT22;26075;43.320;21.920;2023-09-19T01:02:25;24.50;58.70
40368;DHT22;26075;43.320;21.920;2023-09-19T01:07:30;24.50;61.50
40368;DHT22;26075;43.320;21.920;2023-09-19T01:13:12;24.60;61.40
40368;DHT22;26075;43.320;21.920;2023-09-19T01:39:59;24.10;61.00
40368;DHT22;26075;43.320;21.920;2023-09-19T01:50:42;23.60;61.60
40368;DHT22;26075;43.320;21.920;2023-09-19T01:55:48;24.10;60.90
40368;DHT22;26075;43.320;21.920;2023-09-19T02:00:50;24.10;57.90
40368;DHT22;26075;43.320;21.920;2023-09-19T02:05:54;23.90;60.70
40368;DHT22;26075;43.320;21.920;2023-09-19T02:15:56;23.50;60.50
40368;DHT22;26075;43.320;21.920;2023-09-19T02:20:57;24.20;60.80
40368;DHT22;26075;43.320;21.920;2023-09-19T02:25:59;24.00;60.50
40368;DHT22;26075;43.320;21.920;2023-09-19T02:31:04;24.00;57.20
40368;DHT22;26075;43.320;21.920;2023-09-19T02:41:08;23.80;60.40
40368;DHT22;26075;43.320;21.920;2023-09-19T02:46:09;23.80;60.70
40368;DHT22;26075;43.320;21.920;2023-09-19T03:11:20;23.80;60.50
40368;DHT22;26075;43.320;21.920;2023-09-19T03:16:23;23.70;60.00
40368;DHT22;26075;43.320;21.920;2023-09-19T03:26:26;24.10;60.40
40368;DHT22;26075;43.320;21.920;2023-09-19T03:31:27;23.10;60.50
40368;DHT22;26075;43.320;21.920;2023-09-19T03:46:32;23.90;60.50
40368;DHT22;26075;43.320;21.920;2023-09-19T03:51:33;23.60;60.10
40368;DHT22;26075;43.320;21.920;2023-09-19T03:56:34;23.80;60.10
40368;DHT22;26075;43.320;21.920;2023-09-19T04:06:38;23.70;60.00
40368;DHT22;26075;43.320;21.920;2023-09-19T04:21:41;22.50;60.60
40368;DHT22;26075;43.320;21.920;2023-09-19T04:36:46;22.70;61.00
40368;DHT22;26075;43.320;21.920;2023-09-19T04:56:50;23.00;61.60
40368;DHT22;26075;43.320;21.920;2023-09-19T05:06:52;22.70;61.20
40368;DHT22;26075;43.320;21.920;2023-09-19T05:11:54;23.20;61.40
40368;DHT22;26075;43.320;21.920;2023-09-19T05:16:55;22.60;61.00
40368;DHT22;26075;43.320;21.920;2023-09-19T05:36:59;23.00;61.80
40368;DHT22;26075;43.320;21.920;2023-09-19T05:47:01;22.50;61.20
40368;DHT22;26075;43.320;21.920;2023-09-19T06:02:05;23.00;60.30
40368;DHT22;26075;43.320;21.920;2023-09-19T06:07:07;23.30;60.30
40368;DHT22;26075;43.320;21.920;2023-09-19T06:17:09;23.40;60.70
40368;DHT22;26075;43.320;21.920;2023-09-19T06:27:11;23.60;60.50
40368;DHT22;26075;43.320;21.920;2023-09-19T06:32:12;23.60;60.20
40368;DHT22;26075;43.320;21.920;2023-09-19T06:47:17;23.80;60.40
40368;DHT22;26075;43.320;21.920;2023-09-19T07:07:22;24.00;60.50
40368;DHT22;26075;43.320;21.920;2023-09-19T07:17:24;23.90;59.80
40368;DHT22;26075;43.320;21.920;2023-09-19T07:22:26;24.00;56.80
40368;DHT22;26075;43.320;21.920;2023-09-19T07:27:27;24.10;60.00
40368;DHT22;26075;43.320;21.920;2023-09-19T07:52:37;24.60;59.80
40368;DHT22;26075;43.320;21.920;2023-09-19T08:02:42;24.40;59.80
40368;DHT22;26075;43.320;21.920;2023-09-19T08:07:45;24.50;59.80
40368;DHT22;26075;43.320;21.920;2023-09-19T08:23:02;24.70;59.70
40368;DHT22;26075;43.320;21.920;2023-09-19T08:28:06;24.70;56.80
40368;DHT22;26075;43.320;21.920;2023-09-19T08:43:12;24.90;59.20
40368;DHT22;26075;43.320;21.920;2023-09-19T08:48:20;25.00;56.00
40368;DHT22;26075;43.320;21.920;2023-09-19T08:53:43;24.90;58.80
40368;DHT22;26075;43.320;21.920;2023-09-19T09:03:54;24.80;56.10
40368;DHT22;26075;43.320;21.920;2023-09-19T09:13:57;24.80;59.10
40368;DHT22;26075;43.320;21.920;2023-09-19T09:34:01;25.40;58.90
40368;DHT22;26075;43.320;21.920;2023-09-19T09:44:19;25.10;55.70
40368;DHT22;26075;43.320;21.920;2023-09-19T09:49:27;25.00;58.60
40368;DHT22;26075;43.320;21.920;2023-09-19T10:10:01;25.00;55.70
40368;DHT22;26075;43.320;21.920;2023-09-19T10:15:24;25.10;55.50
40368;DHT22;26075;43.320;21.920;2023-09-19T10:20:28;25.20;55.60
40368;DHT22;26075;43.320;21.920;2023-09-19T10:30:47;25.20;58.30
40368;DHT22;26075;43.320;21.920;2023-09-19T10:46:07;25.30;55.80
40368;DHT22;26075;43.320;21.920;2023-09-19T10:56:37;25.30;55.70
40368;DHT22;26075;43.320;21.920;2023-09-19T11:01:53;25.50;58.40
40368;DHT22;26075;43.320;21.920;2023-09-19T11:22:17;25.50;57.90
40368;DHT22;26075;43.320;21.920;2023-09-19T11:27:19;25.30;57.60
40368;DHT22;26075;43.320;21.920;2023-09-19T11:33:23;25.80;54.90
40368;DHT22;26075;43.320;21.920;2023-09-19T11:38:04;25.80;57.40
40368;DHT22;26075;43.320;21.920;2023-09-19T11:43:29;25.70;57.20
40368;DHT22;26075;43.320;21.920;2023-09-19T11:58:37;26.00;54.50
40368;DHT22;26075;43.320;21.920;2023-09-19T12:03:40;26.10;54.50
40368;DHT22;26075;43.320;21.920;2023-09-19T12:44:10;26.40;56.30
40368;DHT22;26075;43.320;21.920;2023-09-19T12:49:20;26.70;53.90
40368;DHT22;26075;43.320;21.920;2023-09-19T12:54:21;26.80;56.00
40368;DHT22;26075;43.320;21.920;2023-09-19T13:04:31;26.60;55.70
40368;DHT22;26075;43.320;21.920;2023-09-19T13:19:43;27.20;53.30
40368;DHT22;26075;43.320;21.920;2023-09-19T13:34:52;27.40;55.30
40368;DHT22;26075;43.320;21.920;2023-09-19T13:54:58;26.90;55.10
40368;DHT22;26075;43.320;21.920;2023-09-19T14:10:00;26.90;54.90
40368;DHT22;26075;43.320;21.920;2023-09-19T14:35:08;27.00;53.70
40368;DHT22;26075;43.320;21.920;2023-09-19T15:05:23;26.90;56.90
40368;DHT22;26075;43.320;21.920;2023-09-19T15:20:26;26.50;57.30
40368;DHT22;26075;43.320;21.920;2023-09-19T15:30:30;26.30;57.60
40368;DHT22;26075;43.320;21.920;2023-09-19T15:50:36;25.80;57.90
40368;DHT22;26075;43.320;21.920;2023-09-19T15:55:40;26.00;55.70
40368;DHT22;26075;43.320;21.920;2023-09-19T16:00:40;25.70;58.50
40368;DHT22;26075;43.320;21.920;2023-09-19T16:10:43;25.90;58.70
40368;DHT22;26075;43.320;21.920;2023-09-19T16:25:46;26.00;59.20
40368;DHT22;26075;43.320;21.920;2023-09-19T16:35:50;25.90;59.40
40368;DHT22;26075;43.320;21.920;2023-09-19T16:40:55;25.50;58.60
40368;DHT22;26075;43.320;21.920;2023-09-19T16:51:03;25.70;57.00
40368;DHT22;26075;43.320;21.920;2023-09-19T16:56:05;25.70;57.00
40368;DHT22;26075;43.320;21.920;2023-09-19T17:06:15;25.30;60.30
40368;DHT22;26075;43.320;21.920;2023-09-19T17:11:18;25.20;60.80
40368;DHT22;26075;43.320;21.920;2023-09-19T17:16:20;24.90;60.90
40368;DHT22;26075;43.320;21.920;2023-09-19T17:21:22;25.50;61.50
40368;DHT22;26075;43.320;21.920;2023-09-19T17:41:28;25.40;62.10
40368;DHT22;26075;43.320;21.920;2023-09-19T18:01:32;25.20;62.20
40368;DHT22;26075;43.320;21.920;2023-09-19T18:11:35;25.20;62.60
40368;DHT22;26075;43.320;21.920;2023-09-19T18:16:36;25.10;62.90
40368;DHT22;26075;43.320;21.920;2023-09-19T18:21:38;25.30;62.90
40368;DHT22;26075;43.320;21.920;2023-09-19T18:36:41;25.10;63.30
40368;DHT22;26075;43.320;21.920;2023-09-19T18:46:45;25.30;63.50
40368;DHT22;26075;43.320;21.920;2023-09-19T18:56:49;25.40;63.40
40368;DHT22;26075;43.320;21.920;2023-09-19T19:01:50;25.30;63.90
40368;DHT22;26075;43.320;21.920;2023-09-19T19:06:51;25.40;63.80
40368;DHT22;26075;43.320;21.920;2023-09-19T19:26:56;25.20;63.40
40368;DHT22;26075;43.320;21.920;2023-09-19T19:31:57;25.40;64.40
40368;DHT22;26075;43.320;21.920;2023-09-19T19:36:58;25.40;64.40
40368;DHT22;26075;43.320;21.920;2023-09-19T19:41:59;25.50;64.60
40368;DHT22;26075;43.320;21.920;2023-09-19T19:52:02;25.20;64.10
40368;DHT22;26075;43.320;21.920;2023-09-19T19:57:04;25.00;64.50
40368;DHT22;26075;43.320;21.920;2023-09-19T20:02:05;25.10;64.90
40368;DHT22;26075;43.320;21.920;2023-09-19T20:22:12;24.90;65.30
40368;DHT22;26075;43.320;21.920;2023-09-19T20:27:13;25.20;65.60
40368;DHT22;26075;43.320;21.920;2023-09-19T20:42:20;24.70;65.60
40368;DHT22;26075;43.320;21.920;2023-09-19T21:17:31;24.80;66.20
40368;DHT22;26075;43.320;21.920;2023-09-19T21:32:34;25.00;66.90
40368;DHT22;26075;43.320;21.920;2023-09-19T21:42:38;24.80;66.90
40368;DHT22;26075;43.320;21.920;2023-09-19T21:52:40;24.80;67.30
40368;DHT22;26075;43.320;21.920;2023-09-19T22:02:42;24.50;67.10
40368;DHT22;26075;43.320;21.920;2023-09-19T22:12:45;24.50;66.90
40368;DHT22;26075;43.320;21.920;2023-09-19T22:17:46;24.60;67.40
40368;DHT22;26075;43.320;21.920;2023-09-19T22:22:47;24.60;64.30
40368;DHT22;26075;43.320;21.920;2023-09-19T22:27:47;24.60;67.50
40368;DHT22;26075;43.320;21.920;2023-09-19T22:42:53;24.70;67.50
40368;DHT22;26075;43.320;21.920;2023-09-19T22:52:58;24.50;67.70
40368;DHT22;26075;43.320;21.920;2023-09-19T22:58:04;24.50;67.50
40368;DHT22;26075;43.320;21.920;2023-09-19T23:28:22;24.50;67.70
40368;DHT22;26075;43.320;21.920;2023-09-19T23:33:24;24.70;67.30
40368;DHT22;26075;43.320;21.920;2023-09-19T23:48:32;24.40;67.50
